Time;durP1;ratioP1;P1;durP2;ratioP2;P2;SDS_P1;SDS_P2;PMS_P1;PMS_P2;Temp;Humidity;BMP_temperature;BMP_pressure;BME280_temperature;BME280_humidity;BME280_pressure;Samples;Min_cycle;Max_cycle;Signal;HPM_P1;HPM_P2
2022/07/12 00:01:23;;;;;;;4.88;3.22;;;;;;;;;;4961537;28;20526;-87
2022/07/12 00:03:49;;;;;;;4.57;3.30;;;;;;;;;;4968400;28;20110;-90
2022/07/12 00:06:15;;;;;;;5.43;2.92;;;;;;;;;;4946623;28;20129;-90
2022/07/12 00:08:41;;;;;;;6.85;3.25;;;;;;;;;;4949677;28;20085;-90
2022/07/12 00:11:07;;;;;;;5.28;3.53;;;;;;;;;;4950575;28;20026;-90
2022/07/12 00:13:34;;;;;;;5.53;3.30;;;;;;;;;;4961534;28;20130;-90
2022/07/12 00:16:00;;;;;;;4.50;3.40;;;;;;;;;;4945403;28;20059;-89
2022/07/12 00:18:26;;;;;;;7.40;3.97;;;;;;;;;;4964517;28;20035;-90
2022/07/12 00:20:52;;;;;;;4.90;3.50;;;;;;;;;;4945288;28;20149;-89
2022/07/12 00:23:18;;;;;;;5.45;3.75;;;;;;;;;;4965006;28;20117;-89
2022/07/12 00:25:44;;;;;;;7.15;3.88;;;;;;;;;;4944925;28;20031;-91
2022/07/12 00:28:10;;;;;;;6.20;4.13;;;;;;;;;;4949000;28;20033;-90
2022/07/12 00:30:36;;;;;;;5.15;3.80;;;;;;;;;;4950301;28;20041;-90
2022/07/12 00:33:02;;;;;;;7.55;3.90;;;;;;;;;;4948153;28;20034;-90
2022/07/12 00:35:28;;;;;;;5.68;3.95;;;;;;;;;;4964680;28;20034;-89
2022/07/12 00:37:54;;;;;;;4.82;3.38;;;;;;;;;;4943266;28;20067;-90
2022/07/12 00:40:20;;;;;;;6.97;4.13;;;;;;;;;;4944199;28;20050;-90
2022/07/12 00:42:46;;;;;;;7.70;3.90;;;;;;;;;;4951497;28;20035;-90
2022/07/12 00:45:12;;;;;;;5.97;4.15;;;;;;;;;;4949231;28;20089;-90
2022/07/12 00:47:44;;;;;;;6.05;4.25;;;;;;;;;;4967991;28;20039;-90
2022/07/12 00:50:17;;;;;;;6.25;3.92;;;;;;;;;;4948155;28;20565;-90
2022/07/12 00:52:44;;;;;;;5.82;4.07;;;;;;;;;;4965465;28;20066;-90
2022/07/12 00:55:10;;;;;;;6.45;4.38;;;;;;;;;;4947001;28;20043;-89
2022/07/12 00:57:37;;;;;;;6.45;4.10;;;;;;;;;;4951681;28;20073;-90
2022/07/12 01:00:05;;;;;;;6.00;4.25;;;;;;;;;;4966636;28;20050;-90
2022/07/12 01:02:31;;;;;;;7.00;4.50;;;;;;;;;;4950475;28;20496;-90
2022/07/12 01:04:58;;;;;;;7.57;3.40;;;;;;;;;;4948769;28;20082;-91
2022/07/12 01:07:26;;;;;;;5.18;3.85;;;;;;;;;;4948477;28;20541;-90
2022/07/12 01:09:59;;;;;;;6.60;4.32;;;;;;;;;;4968502;28;20053;-90
2022/07/12 01:12:25;;;;;;;5.78;3.85;;;;;;;;;;4950937;28;20030;-90
2022/07/12 01:14:51;;;;;;;4.30;3.33;;;;;;;;;;4967709;28;20649;-90
2022/07/12 01:17:22;;;;;;;8.10;3.95;;;;;;;;;;4965316;28;20035;-89
2022/07/12 01:19:56;;;;;;;6.75;3.22;;;;;;;;;;4967898;28;20057;-90
2022/07/12 01:22:26;;;;;;;6.22;3.40;;;;;;;;;;4942686;28;20030;-90
2022/07/12 01:24:52;;;;;;;5.57;3.92;;;;;;;;;;4948299;28;20174;-90
2022/07/12 01:27:19;;;;;;;6.47;3.70;;;;;;;;;;4948403;28;20154;-89
2022/07/12 01:29:45;;;;;;;5.78;4.05;;;;;;;;;;4950678;28;20264;-89
2022/07/12 01:32:26;;;;;;;5.50;3.40;;;;;;;;;;4947807;28;20031;-89
2022/07/12 01:34:52;;;;;;;6.75;3.65;;;;;;;;;;4948922;28;20034;-90
2022/07/12 01:37:19;;;;;;;6.75;3.53;;;;;;;;;;4962701;28;20820;-90
2022/07/12 01:39:45;;;;;;;8.00;3.90;;;;;;;;;;4948486;28;20039;-89
2022/07/12 01:42:11;;;;;;;3.92;3.38;;;;;;;;;;4964502;28;20034;-89
2022/07/12 01:44:37;;;;;;;10.07;3.92;;;;;;;;;;4948280;28;20026;-89
2022/07/12 01:47:04;;;;;;;5.82;3.95;;;;;;;;;;4944233;28;20030;-89
2022/07/12 01:49:30;;;;;;;7.22;3.65;;;;;;;;;;4946375;28;20038;-90
2022/07/12 01:51:56;;;;;;;5.45;3.60;;;;;;;;;;4956384;28;20549;-89
2022/07/12 01:54:24;;;;;;;6.30;3.35;;;;;;;;;;4963438;28;20513;-89
2022/07/12 01:56:52;;;;;;;5.45;3.35;;;;;;;;;;4947433;28;20053;-89
2022/07/12 01:59:18;;;;;;;3.47;2.97;;;;;;;;;;4966645;28;20534;-90
2022/07/12 02:01:44;;;;;;;4.88;3.28;;;;;;;;;;4942915;28;20050;-90
2022/07/12 02:04:10;;;;;;;3.70;3.08;;;;;;;;;;4950623;28;20022;-90
2022/07/12 02:06:36;;;;;;;5.32;3.42;;;;;;;;;;4943960;28;20034;-89
2022/07/12 02:09:03;;;;;;;3.55;2.85;;;;;;;;;;4964531;28;20117;-90
2022/07/12 02:11:29;;;;;;;4.47;3.47;;;;;;;;;;4960287;28;20037;-89
2022/07/12 02:13:55;;;;;;;6.40;3.58;;;;;;;;;;4957427;28;20031;-90
2022/07/12 02:16:21;;;;;;;6.00;4.10;;;;;;;;;;4952023;28;20046;-89
2022/07/12 02:18:47;;;;;;;6.22;3.90;;;;;;;;;;4948878;28;20039;-90
2022/07/12 02:21:13;;;;;;;6.55;4.18;;;;;;;;;;4965170;28;20399;-89
2022/07/12 02:23:39;;;;;;;5.53;3.55;;;;;;;;;;4965347;28;20501;-89
2022/07/12 02:26:05;;;;;;;5.80;3.35;;;;;;;;;;4947282;28;20031;-90
2022/07/12 02:28:31;;;;;;;5.13;3.53;;;;;;;;;;4948876;28;20029;-90
2022/07/12 02:30:57;;;;;;;4.93;3.33;;;;;;;;;;4948982;28;20038;-90
2022/07/12 02:33:23;;;;;;;6.43;3.25;;;;;;;;;;4943235;28;20038;-89
2022/07/12 02:35:50;;;;;;;6.93;3.53;;;;;;;;;;4950372;28;20039;-90
2022/07/12 02:38:16;;;;;;;5.18;3.47;;;;;;;;;;4947589;28;20035;-90
2022/07/12 02:40:54;;;;;;;5.30;3.67;;;;;;;;;;4960536;28;20034;-90
2022/07/12 02:43:27;;;;;;;7.97;3.95;;;;;;;;;;4952492;28;20038;-90
2022/07/12 02:45:54;;;;;;;5.95;4.00;;;;;;;;;;4966575;28;20042;-89
2022/07/12 02:48:20;;;;;;;7.78;3.60;;;;;;;;;;4969077;28;20442;-90
2022/07/12 02:50:46;;;;;;;5.80;3.90;;;;;;;;;;4951031;28;20082;-90
2022/07/12 02:53:12;;;;;;;7.68;4.15;;;;;;;;;;4956963;28;20473;-90
2022/07/12 02:55:39;;;;;;;8.48;4.57;;;;;;;;;;4952734;28;20113;-90
2022/07/12 02:58:05;;;;;;;6.47;4.32;;;;;;;;;;4950245;28;20030;-89
2022/07/12 03:00:32;;;;;;;9.95;4.95;;;;;;;;;;4954716;28;20029;-90
2022/07/12 03:02:58;;;;;;;7.05;4.95;;;;;;;;;;4952452;28;20728;-89
2022/07/12 03:05:24;;;;;;;7.45;4.35;;;;;;;;;;4952399;28;20034;-90
2022/07/12 03:07:50;;;;;;;9.52;4.60;;;;;;;;;;4966142;28;20030;-89
2022/07/12 03:10:16;;;;;;;8.05;4.13;;;;;;;;;;4951185;28;20039;-90
2022/07/12 03:12:42;;;;;;;8.60;5.18;;;;;;;;;;4950149;28;20023;-90
2022/07/12 03:15:08;;;;;;;6.53;4.85;;;;;;;;;;4947228;28;20035;-90
2022/07/12 03:17:40;;;;;;;7.07;4.65;;;;;;;;;;4951665;28;20039;-90
2022/07/12 03:20:08;;;;;;;7.53;4.10;;;;;;;;;;4944289;28;20090;-90
2022/07/12 03:22:34;;;;;;;6.75;4.70;;;;;;;;;;4966121;28;20118;-90
2022/07/12 03:25:00;;;;;;;7.28;4.75;;;;;;;;;;4949150;28;20138;-90
2022/07/12 03:27:26;;;;;;;5.95;4.60;;;;;;;;;;4950030;28;20027;-90
2022/07/12 03:29:56;;;;;;;8.07;4.65;;;;;;;;;;4950317;28;20031;-90
2022/07/12 03:32:22;;;;;;;7.80;4.60;;;;;;;;;;4963944;28;20054;-89
2022/07/12 03:34:48;;;;;;;8.88;5.63;;;;;;;;;;4968724;28;20448;-90
2022/07/12 03:37:14;;;;;;;7.47;5.18;;;;;;;;;;4952950;28;20039;-90
2022/07/12 03:39:40;;;;;;;7.45;5.03;;;;;;;;;;4969860;28;20493;-90
2022/07/12 03:42:11;;;;;;;8.80;5.70;;;;;;;;;;4964793;28;20066;-90
2022/07/12 03:44:45;;;;;;;8.25;5.53;;;;;;;;;;4948194;28;20057;-89
2022/07/12 03:47:26;;;;;;;;;;;;;;;;;;;;;
2022/07/12 03:49:53;;;;;;;7.75;5.78;;;;;;;;;;4966417;28;20070;-88
2022/07/12 03:52:19;;;;;;;11.00;6.03;;;;;;;;;;4947320;28;20534;-89
2022/07/12 03:54:45;;;;;;;8.65;5.55;;;;;;;;;;4968219;28;20031;-89
2022/07/12 03:57:14;;;;;;;7.68;5.60;;;;;;;;;;4942551;28;20067;-89
2022/07/12 03:59:43;;;;;;;7.85;5.32;;;;;;;;;;4960419;28;20061;-90
2022/07/12 04:02:10;;;;;;;10.05;5.78;;;;;;;;;;4950026;28;20037;-90
2022/07/12 04:04:36;;;;;;;13.80;5.88;;;;;;;;;;4948338;28;20146;-88
2022/07/12 04:07:02;;;;;;;12.02;6.93;;;;;;;;;;4948844;28;20035;-87
2022/07/12 04:09:28;;;;;;;8.88;4.97;;;;;;;;;;4950353;28;20258;-88
2022/07/12 04:11:54;;;;;;;16.88;6.95;;;;;;;;;;4961969;28;20065;-88
2022/07/12 04:14:20;;;;;;;16.17;7.00;;;;;;;;;;4963507;28;20059;-87
2022/07/12 04:16:46;;;;;;;21.70;8.13;;;;;;;;;;4946873;28;20034;-88
2022/07/12 04:19:19;;;;;;;12.45;7.28;;;;;;;;;;4964649;28;20066;-88
2022/07/12 04:21:45;;;;;;;12.88;6.63;;;;;;;;;;4964616;28;20086;-88
2022/07/12 04:24:11;;;;;;;11.93;6.65;;;;;;;;;;4942217;28;20828;-87
2022/07/12 04:26:37;;;;;;;10.10;6.80;;;;;;;;;;4967402;28;20471;-88
2022/07/12 04:29:03;;;;;;;9.40;5.80;;;;;;;;;;4965215;28;20035;-88
2022/07/12 04:31:29;;;;;;;16.90;7.05;;;;;;;;;;4961803;28;20077;-88
2022/07/12 04:33:55;;;;;;;14.95;6.95;;;;;;;;;;4948419;28;20039;-88
2022/07/12 04:36:21;;;;;;;18.73;7.47;;;;;;;;;;4961380;28;20050;-88
2022/07/12 04:38:47;;;;;;;16.33;7.80;;;;;;;;;;4945166;28;20046;-88
2022/07/12 04:41:13;;;;;;;15.48;7.78;;;;;;;;;;4952366;28;20031;-88
2022/07/12 04:43:39;;;;;;;20.55;8.00;;;;;;;;;;4965541;28;20028;-88
2022/07/12 04:46:08;;;;;;;16.98;7.82;;;;;;;;;;4943745;28;20045;-88
2022/07/12 04:48:35;;;;;;;10.98;6.40;;;;;;;;;;4946285;28;20038;-89
2022/07/12 04:51:01;;;;;;;20.67;7.50;;;;;;;;;;4948925;28;20302;-89
2022/07/12 04:53:27;;;;;;;14.13;6.75;;;;;;;;;;4953181;28;20035;-89
2022/07/12 04:55:55;;;;;;;16.65;7.18;;;;;;;;;;4969724;28;20078;-89
2022/07/12 04:58:21;;;;;;;20.95;8.13;;;;;;;;;;4946073;28;20062;-88
2022/07/12 05:00:47;;;;;;;12.00;6.45;;;;;;;;;;4949455;28;20094;-88
2022/07/12 05:03:13;;;;;;;14.55;5.88;;;;;;;;;;4966462;28;20027;-90
2022/07/12 05:05:39;;;;;;;19.88;7.45;;;;;;;;;;4950390;28;20121;-89
2022/07/12 05:08:05;;;;;;;35.05;8.30;;;;;;;;;;4950372;28;20138;-89
2022/07/12 05:10:31;;;;;;;23.67;7.63;;;;;;;;;;4970923;28;20562;-89
2022/07/12 05:12:57;;;;;;;18.38;8.13;;;;;;;;;;4961431;28;20035;-89
2022/07/12 05:15:23;;;;;;;12.35;6.43;;;;;;;;;;4965373;28;20434;-89
2022/07/12 05:17:49;;;;;;;23.05;6.68;;;;;;;;;;4963220;28;20039;-88
2022/07/12 05:20:15;;;;;;;10.18;5.88;;;;;;;;;;4948984;28;20022;-88
2022/07/12 05:22:41;;;;;;;9.57;5.53;;;;;;;;;;4961544;28;20053;-88
2022/07/12 05:25:08;;;;;;;8.15;4.97;;;;;;;;;;4951675;28;20031;-92
2022/07/12 05:27:34;;;;;;;13.30;5.88;;;;;;;;;;4961579;28;20027;-88
2022/07/12 05:30:00;;;;;;;9.35;4.95;;;;;;;;;;4944440;28;20047;-88
2022/07/12 05:32:27;;;;;;;11.88;5.03;;;;;;;;;;4955986;28;20469;-88
2022/07/12 05:34:53;;;;;;;11.93;5.60;;;;;;;;;;4945567;28;20072;-88
2022/07/12 05:37:19;;;;;;;7.85;4.85;;;;;;;;;;4939244;28;20070;-88
2022/07/12 05:39:45;;;;;;;9.80;5.78;;;;;;;;;;4942587;28;20133;-88
2022/07/12 05:42:11;;;;;;;11.70;5.80;;;;;;;;;;4946663;28;20700;-88
2022/07/12 05:44:37;;;;;;;9.02;5.40;;;;;;;;;;4947121;28;20069;-89
2022/07/12 05:47:03;;;;;;;10.35;5.50;;;;;;;;;;4949663;28;20065;-87
2022/07/12 05:49:29;;;;;;;10.35;5.88;;;;;;;;;;4952089;28;20049;-88
2022/07/12 05:54:39;;;;;;;9.70;4.43;;;;;;;;;;4965259;28;20116;-87
2022/07/12 05:57:05;;;;;;;8.95;4.85;;;;;;;;;;4964351;28;20074;-88
2022/07/12 05:59:32;;;;;;;8.32;4.57;;;;;;;;;;4945756;28;20049;-88
2022/07/12 06:01:58;;;;;;;9.38;3.80;;;;;;;;;;4963756;28;20495;-87
2022/07/12 06:04:24;;;;;;;6.65;4.57;;;;;;;;;;4951011;28;20371;-87
2022/07/12 06:06:50;;;;;;;7.78;4.78;;;;;;;;;;4963439;28;20039;-88
2022/07/12 06:09:16;;;;;;;7.30;4.80;;;;;;;;;;4950482;28;20739;-88
2022/07/12 06:11:42;;;;;;;9.43;4.85;;;;;;;;;;4945876;28;20031;-86
2022/07/12 06:14:08;;;;;;;8.40;5.03;;;;;;;;;;4968259;28;20041;-86
2022/07/12 06:16:34;;;;;;;12.50;4.75;;;;;;;;;;4942245;28;20053;-88
2022/07/12 06:19:00;;;;;;;9.45;4.25;;;;;;;;;;4949578;28;20038;-88
2022/07/12 06:21:26;;;;;;;8.38;4.85;;;;;;;;;;4948458;28;20157;-88
2022/07/12 06:23:53;;;;;;;8.35;4.43;;;;;;;;;;4950874;28;20030;-87
2022/07/12 06:26:19;;;;;;;21.40;5.75;;;;;;;;;;4967040;28;20030;-88
2022/07/12 06:28:45;;;;;;;8.32;4.68;;;;;;;;;;4950267;28;20026;-88
2022/07/12 06:31:11;;;;;;;5.95;4.10;;;;;;;;;;4949819;28;20062;-87
2022/07/12 06:33:37;;;;;;;8.18;4.75;;;;;;;;;;4970669;28;20061;-88
2022/07/12 06:36:03;;;;;;;11.52;4.57;;;;;;;;;;4956615;28;20030;-87
2022/07/12 06:38:29;;;;;;;8.57;4.40;;;;;;;;;;4953828;28;20510;-87
2022/07/12 06:40:55;;;;;;;8.63;4.43;;;;;;;;;;4949654;28;20035;-88
2022/07/12 06:43:21;;;;;;;8.88;4.13;;;;;;;;;;4947555;28;20160;-88
2022/07/12 06:45:47;;;;;;;7.70;4.53;;;;;;;;;;4945809;28;20503;-87
2022/07/12 06:48:13;;;;;;;6.28;4.43;;;;;;;;;;4934286;29;20067;-88
2022/07/12 06:50:39;;;;;;;6.00;4.32;;;;;;;;;;4950024;28;20043;-86
2022/07/12 06:53:05;;;;;;;4.18;3.42;;;;;;;;;;4934378;29;20098;-87
2022/07/12 06:55:31;;;;;;;9.98;4.57;;;;;;;;;;4933891;28;20037;-88
2022/07/12 06:57:57;;;;;;;5.40;3.80;;;;;;;;;;4928169;28;20031;-87
2022/07/12 07:00:23;;;;;;;14.15;4.72;;;;;;;;;;4930698;28;20047;-87
2022/07/12 07:02:49;;;;;;;6.25;4.45;;;;;;;;;;4932268;28;20047;-87
2022/07/12 07:05:21;;;;;;;13.45;3.83;;;;;;;;;;4932489;28;20032;-88
2022/07/12 07:07:47;;;;;;;7.15;3.83;;;;;;;;;;4948310;28;20035;-87
2022/07/12 07:10:14;;;;;;;5.97;3.67;;;;;;;;;;4931380;28;20463;-88
2022/07/12 07:12:40;;;;;;;9.05;4.20;;;;;;;;;;4950876;28;20035;-88
2022/07/12 07:15:06;;;;;;;8.27;4.82;;;;;;;;;;4946636;28;20051;-89
2022/07/12 07:17:32;;;;;;;7.95;3.70;;;;;;;;;;4929596;29;20495;-87
2022/07/12 07:19:58;;;;;;;7.13;4.13;;;;;;;;;;4924724;28;20050;-87
2022/07/12 07:22:24;;;;;;;6.00;3.35;;;;;;;;;;4950917;28;20019;-87
2022/07/12 07:24:50;;;;;;;6.20;4.25;;;;;;;;;;4948799;28;20038;-88
2022/07/12 07:27:16;;;;;;;4.70;3.28;;;;;;;;;;4951526;28;20058;-87
2022/07/12 07:32:40;;;;;;;11.85;3.72;;;;;;;;;;4905956;28;20043;-87
2022/07/12 07:35:07;;;;;;;5.78;3.58;;;;;;;;;;4943093;28;20107;-88
2022/07/12 07:37:33;;;;;;;4.18;3.20;;;;;;;;;;4928497;29;20074;-87
2022/07/12 07:39:59;;;;;;;2.92;2.45;;;;;;;;;;4946040;28;20047;-87
2022/07/12 07:42:25;;;;;;;4.78;3.20;;;;;;;;;;4962615;28;20038;-88
2022/07/12 07:44:51;;;;;;;6.00;2.97;;;;;;;;;;4953429;28;20951;-88
2022/07/12 07:47:17;;;;;;;5.30;3.28;;;;;;;;;;4948690;28;20503;-89
2022/07/12 07:49:43;;;;;;;4.82;3.10;;;;;;;;;;4967809;28;20085;-88
2022/07/12 07:52:09;;;;;;;4.47;3.22;;;;;;;;;;4964142;28;20108;-88
2022/07/12 07:54:35;;;;;;;5.22;3.60;;;;;;;;;;4964709;28;20060;-88
2022/07/12 07:57:01;;;;;;;6.50;2.92;;;;;;;;;;4954422;28;20030;-88
2022/07/12 07:59:27;;;;;;;4.05;3.20;;;;;;;;;;4964181;28;20035;-89
2022/07/12 08:01:53;;;;;;;5.00;2.67;;;;;;;;;;4967541;28;20058;-88
2022/07/12 08:04:21;;;;;;;5.03;2.28;;;;;;;;;;4964191;28;20058;-89
2022/07/12 08:06:47;;;;;;;9.50;2.90;;;;;;;;;;4951195;28;20127;-88
2022/07/12 08:09:14;;;;;;;5.38;1.95;;;;;;;;;;4968358;28;20113;-89
2022/07/12 08:11:40;;;;;;;6.30;2.20;;;;;;;;;;4966071;28;20035;-88
2022/07/12 08:14:06;;;;;;;1.90;1.75;;;;;;;;;;4970154;28;20049;-88
2022/07/12 08:16:33;;;;;;;3.40;1.88;;;;;;;;;;4966983;28;20632;-88
2022/07/12 08:18:59;;;;;;;6.00;2.15;;;;;;;;;;4970357;28;20034;-88
2022/07/12 08:21:25;;;;;;;3.30;2.22;;;;;;;;;;4963264;28;20159;-88
2022/07/12 08:23:52;;;;;;;1.92;1.73;;;;;;;;;;4949922;28;20046;-88
2022/07/12 08:26:19;;;;;;;2.25;1.73;;;;;;;;;;4966197;28;20165;-89
2022/07/12 08:28:45;;;;;;;2.20;1.98;;;;;;;;;;4948140;28;20098;-88
2022/07/12 08:31:13;;;;;;;4.68;1.90;;;;;;;;;;4963464;28;20112;-88
2022/07/12 08:33:40;;;;;;;4.72;2.17;;;;;;;;;;4949092;28;20050;-88
2022/07/12 08:36:06;;;;;;;2.80;1.80;;;;;;;;;;4949758;28;20027;-88
2022/07/12 08:38:33;;;;;;;6.57;2.67;;;;;;;;;;4952938;28;20157;-88
2022/07/12 08:40:59;;;;;;;5.28;2.42;;;;;;;;;;4966246;28;20403;-88
2022/07/12 08:43:25;;;;;;;7.50;2.40;;;;;;;;;;4950022;28;20069;-88
2022/07/12 08:45:51;;;;;;;2.58;2.00;;;;;;;;;;4967305;28;20081;-89
2022/07/12 08:48:17;;;;;;;5.95;2.08;;;;;;;;;;4942209;28;20035;-88
2022/07/12 08:50:45;;;;;;;7.32;2.30;;;;;;;;;;4963043;28;20034;-89
2022/07/12 08:53:13;;;;;;;4.15;2.15;;;;;;;;;;4949193;28;20045;-88
2022/07/12 08:55:39;;;;;;;3.50;2.25;;;;;;;;;;4946708;28;20121;-88
2022/07/12 08:58:14;;;;;;;3.95;2.00;;;;;;;;;;4950789;28;20030;-88
2022/07/12 09:00:40;;;;;;;;;;;;;;;;;;4947857;28;20035;-88
2022/07/12 09:03:07;;;;;;;3.50;2.08;;;;;;;;;;4965964;28;19917;-88
2022/07/12 09:05:33;;;;;;;3.25;1.85;;;;;;;;;;4951757;28;20030;-88
2022/07/12 09:08:02;;;;;;;2.08;1.88;;;;;;;;;;4954091;28;20178;-88
2022/07/12 09:10:28;;;;;;;4.90;2.30;;;;;;;;;;4969862;28;20672;-88
2022/07/12 09:12:55;;;;;;;2.97;2.25;;;;;;;;;;4949193;28;20035;-89
2022/07/12 09:15:23;;;;;;;3.58;3.00;;;;;;;;;;4969377;28;20030;-88
2022/07/12 09:17:49;;;;;;;2.75;2.00;;;;;;;;;;4950813;28;20078;-88
2022/07/12 09:20:15;;;;;;;4.30;1.83;;;;;;;;;;4950854;28;20030;-88
2022/07/12 09:22:52;;;;;;;5.97;2.67;;;;;;;;;;4952238;28;20027;-88
2022/07/12 09:25:21;;;;;;;6.03;2.60;;;;;;;;;;4964529;28;20126;-88
2022/07/12 09:27:57;;;;;;;3.47;2.20;;;;;;;;;;4963707;28;20490;-88
2022/07/12 09:30:29;;;;;;;3.25;2.30;;;;;;;;;;4948491;28;20031;-89
2022/07/12 09:36:07;;;;;;;3.40;2.60;;;;;;;;;;4967059;28;20478;-88
2022/07/12 09:38:36;;;;;;;4.43;2.80;;;;;;;;;;4949685;28;20023;-88
2022/07/12 09:41:02;;;;;;;3.58;2.97;;;;;;;;;;4964565;28;20051;-88
2022/07/12 09:43:29;;;;;;;2.33;2.13;;;;;;;;;;4975234;28;20378;-87
2022/07/12 09:45:56;;;;;;;2.78;2.05;;;;;;;;;;4950948;28;20081;-88
2022/07/12 09:48:22;;;;;;;2.92;2.60;;;;;;;;;;4949009;28;20078;-89
2022/07/12 09:50:49;;;;;;;3.97;2.97;;;;;;;;;;4963742;28;20055;-89
2022/07/12 09:53:20;;;;;;;2.50;2.28;;;;;;;;;;4947584;28;20027;-88
2022/07/12 09:55:47;;;;;;;2.95;2.10;;;;;;;;;;4946470;28;20069;-87
2022/07/12 09:58:14;;;;;;;3.88;2.88;;;;;;;;;;4966685;28;20180;-88
2022/07/12 10:00:40;;;;;;;6.82;2.80;;;;;;;;;;4952265;28;20035;-89
2022/07/12 10:03:08;;;;;;;3.05;2.72;;;;;;;;;;4965411;28;20533;-89
2022/07/12 10:05:35;;;;;;;6.45;3.15;;;;;;;;;;4946976;28;20487;-88
2022/07/12 10:08:02;;;;;;;8.00;2.42;;;;;;;;;;4969294;28;20038;-89
2022/07/12 10:10:28;;;;;;;2.80;2.45;;;;;;;;;;4946777;28;20023;-88
2022/07/12 10:12:55;;;;;;;3.38;2.75;;;;;;;;;;4973768;28;20114;-88
2022/07/12 10:15:23;;;;;;;2.85;2.15;;;;;;;;;;4948694;28;20698;-87
2022/07/12 10:17:54;;;;;;;4.80;1.83;;;;;;;;;;4952200;28;20042;-88
2022/07/12 10:20:26;;;;;;;2.17;1.90;;;;;;;;;;4945110;28;20097;-88
2022/07/12 10:22:53;;;;;;;6.28;2.55;;;;;;;;;;4953530;28;20074;-88
2022/07/12 10:25:32;;;;;;;4.05;2.03;;;;;;;;;;4951934;28;20557;-89
2022/07/12 10:27:59;;;;;;;2.08;1.88;;;;;;;;;;4949155;28;20026;-88
2022/07/12 10:30:25;;;;;;;5.13;1.83;;;;;;;;;;4948848;28;20074;-87
2022/07/12 10:32:57;;;;;;;3.42;2.00;;;;;;;;;;4950343;28;20805;-88
2022/07/12 10:35:24;;;;;;;2.10;1.90;;;;;;;;;;4946398;28;20027;-89
2022/07/12 10:38:09;;;;;;;1.60;1.50;;;;;;;;;;4942216;28;20059;-88
2022/07/12 10:40:35;;;;;;;2.17;1.75;;;;;;;;;;4941267;28;20642;-89
2022/07/12 10:43:04;;;;;;;5.47;1.60;;;;;;;;;;4968110;28;20119;-88
2022/07/12 10:45:43;;;;;;;4.55;1.92;;;;;;;;;;4959499;28;20034;-88
2022/07/12 10:48:18;;;;;;;1.65;1.33;;;;;;;;;;4967025;28;20134;-89
2022/07/12 10:50:55;;;;;;;17.38;2.10;;;;;;;;;;4945436;28;20109;-89
2022/07/12 10:53:29;;;;;;;1.75;1.45;;;;;;;;;;4952826;28;20624;-88
2022/07/12 10:56:04;;;;;;;4.63;1.45;;;;;;;;;;4950746;28;20081;-89
2022/07/12 10:58:32;;;;;;;1.75;1.45;;;;;;;;;;4969720;28;20073;-88
2022/07/12 11:01:18;;;;;;;4.55;1.27;;;;;;;;;;4945644;28;20041;-88
2022/07/12 11:03:49;;;;;;;1.83;1.55;;;;;;;;;;4940690;28;20042;-87
2022/07/12 11:06:20;;;;;;;1.38;1.27;;;;;;;;;;4961843;28;20402;-89
2022/07/12 11:08:59;;;;;;;2.25;1.55;;;;;;;;;;4970618;28;20031;-89
2022/07/12 11:11:32;;;;;;;1.30;1.20;;;;;;;;;;4952276;28;20034;-88
2022/07/12 11:13:59;;;;;;;2.45;1.10;;;;;;;;;;4962875;28;20070;-89
2022/07/12 11:16:25;;;;;;;2.10;1.10;;;;;;;;;;4951390;28;20049;-88
2022/07/12 11:18:52;;;;;;;1.23;1.13;;;;;;;;;;4971014;28;20053;-89
2022/07/12 11:21:18;;;;;;;4.38;1.40;;;;;;;;;;4946752;28;20041;-89
2022/07/12 11:23:44;;;;;;;2.45;1.40;;;;;;;;;;4952189;28;20498;-88
2022/07/12 11:26:11;;;;;;;1.17;1.10;;;;;;;;;;4967813;28;20023;-89
2022/07/12 11:28:37;;;;;;;1.23;1.13;;;;;;;;;;4947639;28;20509;-89
2022/07/12 11:31:08;;;;;;;1.10;1.00;;;;;;;;;;4945393;28;20188;-89
2022/07/12 11:33:36;;;;;;;1.27;1.02;;;;;;;;;;4967176;28;20042;-89
2022/07/12 11:36:03;;;;;;;1.50;1.20;;;;;;;;;;4949228;28;20038;-89
2022/07/12 11:38:30;;;;;;;1.05;1.05;;;;;;;;;;4949676;28;20034;-89
2022/07/12 11:40:56;;;;;;;2.55;1.17;;;;;;;;;;4950951;28;20042;-87
2022/07/12 11:43:23;;;;;;;1.58;1.00;;;;;;;;;;4944533;28;20030;-88
2022/07/12 11:45:49;;;;;;;1.10;1.10;;;;;;;;;;4951437;28;20049;-89
2022/07/12 11:48:15;;;;;;;1.75;1.50;;;;;;;;;;4966838;28;20181;-89
2022/07/12 11:50:45;;;;;;;9.77;1.30;;;;;;;;;;4944200;28;20050;-90
2022/07/12 11:53:29;;;;;;;7.22;1.20;;;;;;;;;;4952308;28;20043;-88
2022/07/12 11:55:56;;;;;;;2.15;1.20;;;;;;;;;;4965030;28;20501;-89
2022/07/12 11:58:23;;;;;;;0.90;0.90;;;;;;;;;;4952547;28;20721;-89
2022/07/12 12:00:49;;;;;;;3.97;1.17;;;;;;;;;;4952895;28;20034;-88
2022/07/12 12:03:19;;;;;;;1.77;1.00;;;;;;;;;;4952352;28;20054;-88
2022/07/12 12:05:49;;;;;;;1.15;1.00;;;;;;;;;;4950364;28;20040;-88
2022/07/12 12:08:16;;;;;;;2.05;1.25;;;;;;;;;;4967043;28;20061;-89
2022/07/12 12:11:03;;;;;;;2.17;1.30;;;;;;;;;;4951282;28;20042;-89
2022/07/12 12:13:30;;;;;;;4.72;1.55;;;;;;;;;;4963028;28;20558;-89
2022/07/12 12:15:57;;;;;;;2.08;1.17;;;;;;;;;;4950083;28;20038;-89
2022/07/12 12:18:29;;;;;;;2.80;1.17;;;;;;;;;;4943037;28;20383;-88
2022/07/12 12:20:59;;;;;;;2.38;1.20;;;;;;;;;;4951814;28;20034;-89
2022/07/12 12:23:25;;;;;;;4.30;1.40;;;;;;;;;;4965076;28;20072;-89
2022/07/12 12:25:52;;;;;;;3.28;1.10;;;;;;;;;;4968325;28;20509;-88
2022/07/12 12:28:18;;;;;;;2.95;1.10;;;;;;;;;;4947381;28;20110;-90
2022/07/12 12:30:54;;;;;;;1.25;1.15;;;;;;;;;;4966735;28;20619;-89
2022/07/12 12:33:37;;;;;;;1.45;1.20;;;;;;;;;;4948311;28;20126;-89
2022/07/12 12:36:18;;;;;;;4.00;0.93;;;;;;;;;;4951263;28;20049;-88
2022/07/12 12:38:45;;;;;;;7.22;1.35;;;;;;;;;;4947308;28;20034;-89
2022/07/12 12:41:11;;;;;;;1.60;1.20;;;;;;;;;;4963385;28;20047;-89
2022/07/12 12:43:38;;;;;;;6.78;1.45;;;;;;;;;;4955835;28;20459;-88
2022/07/12 12:46:05;;;;;;;5.35;1.40;;;;;;;;;;4946937;28;20031;-88
2022/07/12 12:48:46;;;;;;;3.70;1.52;;;;;;;;;;4949353;28;20054;-89
2022/07/12 12:51:12;;;;;;;1.30;1.20;;;;;;;;;;4960266;28;20118;-89
2022/07/12 12:53:39;;;;;;;1.65;1.08;;;;;;;;;;4949678;28;20085;-89
2022/07/12 12:56:10;;;;;;;1.30;1.13;;;;;;;;;;4946218;28;20055;-89
2022/07/12 12:58:37;;;;;;;1.13;1.10;;;;;;;;;;4963947;28;20509;-88
2022/07/12 13:01:10;;;;;;;1.20;1.00;;;;;;;;;;4965992;28;20130;-89
2022/07/12 13:03:36;;;;;;;1.20;1.10;;;;;;;;;;4950118;28;20523;-89
2022/07/12 13:06:04;;;;;;;1.30;1.00;;;;;;;;;;4950644;28;20041;-88
2022/07/12 13:08:30;;;;;;;1.20;1.10;;;;;;;;;;4947802;28;20031;-89
2022/07/12 13:13:41;;;;;;;4.65;1.15;;;;;;;;;;4966138;28;20038;-88
2022/07/12 13:16:07;;;;;;;3.90;1.17;;;;;;;;;;4947627;28;20030;-88
2022/07/12 13:18:33;;;;;;;1.38;1.13;;;;;;;;;;4969371;28;20588;-88
2022/07/12 13:20:59;;;;;;;2.33;1.45;;;;;;;;;;4962014;28;20047;-88
2022/07/12 13:23:25;;;;;;;2.83;1.25;;;;;;;;;;4946802;28;20030;-88
2022/07/12 13:25:51;;;;;;;21.52;3.22;;;;;;;;;;4941959;28;20149;-88
2022/07/12 13:28:18;;;;;;;4.35;1.70;;;;;;;;;;4949549;28;20030;-89
2022/07/12 13:30:44;;;;;;;5.47;1.70;;;;;;;;;;4948351;28;21579;-89
2022/07/12 13:33:10;;;;;;;3.03;2.10;;;;;;;;;;4944753;28;20561;-90
2022/07/12 13:35:36;;;;;;;3.08;1.70;;;;;;;;;;4948222;28;20038;-89
2022/07/12 13:38:02;;;;;;;3.58;1.50;;;;;;;;;;4952163;28;20038;-89
2022/07/12 13:40:35;;;;;;;6.57;1.70;;;;;;;;;;4957168;28;20043;-88
2022/07/12 13:43:01;;;;;;;4.13;1.63;;;;;;;;;;4935118;28;20034;-89
2022/07/12 13:45:28;;;;;;;1.80;1.20;;;;;;;;;;4947466;28;20416;-88
2022/07/12 13:47:54;;;;;;;2.45;1.60;;;;;;;;;;4946209;28;20031;-89
2022/07/12 13:50:21;;;;;;;2.00;1.80;;;;;;;;;;4927782;29;20038;-88
2022/07/12 13:52:48;;;;;;;2.78;1.92;;;;;;;;;;4949656;28;20743;-89
2022/07/12 13:55:15;;;;;;;4.55;1.35;;;;;;;;;;4932851;28;20034;-89
2022/07/12 13:57:42;;;;;;;3.92;1.90;;;;;;;;;;4926771;28;20043;-89
2022/07/12 14:00:13;;;;;;;2.85;1.75;;;;;;;;;;4925998;28;20036;-89
2022/07/12 14:02:40;;;;;;;3.30;1.45;;;;;;;;;;4929142;28;20065;-88
2022/07/12 14:05:07;;;;;;;3.45;1.45;;;;;;;;;;4928070;29;20082;-88
2022/07/12 14:07:34;;;;;;;1.30;1.20;;;;;;;;;;4931554;29;20086;-89
2022/07/12 14:10:00;;;;;;;1.73;0.90;;;;;;;;;;4928855;28;20465;-89
2022/07/12 14:12:26;;;;;;;2.05;1.27;;;;;;;;;;4940793;28;20033;-89
2022/07/12 14:17:50;;;;;;;1.50;1.33;;;;;;;;;;4932035;28;20574;-89
2022/07/12 14:20:25;;;;;;;2.85;1.67;;;;;;;;;;4943011;28;20035;-88
2022/07/12 14:22:54;;;;;;;1.70;1.42;;;;;;;;;;4934985;28;20066;-89
2022/07/12 14:25:20;;;;;;;1.48;1.00;;;;;;;;;;4941252;28;20478;-89
2022/07/12 14:27:46;;;;;;;1.92;1.60;;;;;;;;;;4930257;28;20031;-89
2022/07/12 14:30:13;;;;;;;3.25;1.52;;;;;;;;;;4926237;28;20381;-88
2022/07/12 14:32:40;;;;;;;3.63;1.33;;;;;;;;;;4928570;29;20047;-88
2022/07/12 14:35:06;;;;;;;2.75;1.73;;;;;;;;;;4926140;29;20471;-88
2022/07/12 14:37:33;;;;;;;3.63;1.50;;;;;;;;;;4926946;29;20063;-89
2022/07/12 14:39:59;;;;;;;2.08;1.52;;;;;;;;;;4932587;28;20519;-89
2022/07/12 14:42:25;;;;;;;1.77;1.48;;;;;;;;;;4918088;29;20040;-89
2022/07/12 14:44:51;;;;;;;3.92;1.63;;;;;;;;;;4913852;29;20027;-89
2022/07/12 14:47:18;;;;;;;3.08;1.75;;;;;;;;;;4924455;29;20059;-90
2022/07/12 14:49:44;;;;;;;2.58;1.58;;;;;;;;;;4930809;29;20626;-89
2022/07/12 14:52:11;;;;;;;2.30;1.88;;;;;;;;;;4919728;29;20035;-89
2022/07/12 14:54:37;;;;;;;3.75;1.42;;;;;;;;;;4922810;29;20098;-91
2022/07/12 14:57:03;;;;;;;3.40;1.60;;;;;;;;;;4921418;29;20082;-88
2022/07/12 14:59:29;;;;;;;3.95;1.90;;;;;;;;;;4925224;29;20094;-89